Stations météo

réclame
Mon MeteoGroup
Isola Stromboli, Italie (16416): Température de l'air & dewpoint: 19.04.2018 02:00:00 - 25.04.2018 02:00:00 (CEST)Isola Stromboli, Italie (16416): Vitesse du vent: 19.04.2018 02:00:00 - 25.04.2018 02:00:00 (CEST)Isola Stromboli, Italie (16416): Direction du vent: 19.04.2018 02:00:00 - 25.04.2018 02:00:00 (CEST)Isola Stromboli, Italie (16416): reduced air pressure: 19.04.2018 02:00:00 - 25.04.2018 02:00:00 (CEST)Isola Stromboli, Italie (16416): Quantités de précipitations: 19.04.2018 02:00:00 - 25.04.2018 02:00:00 (CEST)
Date & Time tt [°C] td [°C] ff [km/h] ff [knt] dd ppp [hPa] rr [mm]
25.04.2018 02:00:00 - - - - - - -
25.04.2018 01:00:00 - - - - - - -
25.04.2018 00:00:00 - - - - - - -
24.04.2018 23:00:00 - - - - - - -
24.04.2018 22:00:00 16,4 8,3 0 0 N 1019,6 -
24.04.2018 21:00:00 16,9 9,5 4 2 S 1019,1 -
24.04.2018 20:00:00 16,3 9,2 4 2 S 1019,1 0,0
24.04.2018 19:00:00 18,5 15,7 2 1 S 1019,2 -
24.04.2018 18:00:00 19,1 16,1 9 5 S 1019,6 -
24.04.2018 17:00:00 19,4 16,0 9 5 S 1019,6 -
24.04.2018 16:00:00 19,6 16,4 11 6 S 1019,9 -
24.04.2018 15:00:00 20,0 16,0 13 7 S 1020,2 -
24.04.2018 14:00:00 20,4 16,4 13 7 S 1020,4 0,0
24.04.2018 13:00:00 20,9 17,6 5 3 S 1020,6 -
24.04.2018 12:00:00 20,1 17,4 11 6 S 1020,8 -
24.04.2018 11:00:00 19,6 16,8 11 6 S 1020,6 -
24.04.2018 10:00:00 19,0 17,3 8 4 S 1020,5 -
24.04.2018 09:00:00 18,2 17,0 5 3 S 1020,5 -
24.04.2018 08:00:00 17,4 17,0 2 1 S 1020,2 0,0
24.04.2018 07:00:00 15,9 15,5 4 2 S 1019,8 -
24.04.2018 06:00:00 14,5 13,3 0 0 N 1019,2 -
24.04.2018 05:00:00 14,9 13,7 2 1 S 1019,2 -
24.04.2018 04:00:00 14,5 13,0 0 0 N 1019,2 -
24.04.2018 03:00:00 14,9 13,4 2 1 S 1019,1 -
24.04.2018 02:00:00 15,7 14,0 8 4 S 1019,3 0,0
24.04.2018 01:00:00 15,2 12,8 0 0 N 1019,5 -
24.04.2018 00:00:00 15,8 13,7 9 5 S 1019,7 -
23.04.2018 23:00:00 16,0 14,5 11 6 S 1019,8 -
23.04.2018 22:00:00 16,4 15,4 9 5 S 1019,6 -
23.04.2018 21:00:00 16,9 15,9 9 5 S 1019,5 -
23.04.2018 20:00:00 17,3 15,8 11 6 S 1018,9 0,0
23.04.2018 19:00:00 18,0 15,7 15 8 S 1018,8 -
23.04.2018 18:00:00 19,0 16,7 18 10 S 1018,3 -
23.04.2018 17:00:00 20,0 16,6 16 9 S 1018,1 -
23.04.2018 16:00:00 20,1 16,3 18 10 S 1018,3 -
23.04.2018 15:00:00 21,5 16,4 4 2 S 1018,9 -
23.04.2018 14:00:00 21,4 15,2 8 4 S 1019,3 0,0
23.04.2018 13:00:00 21,0 15,2 13 7 S 1019,4 -
23.04.2018 12:00:00 21,0 15,7 9 5 S 1019,8 -
23.04.2018 11:00:00 20,2 16,2 8 4 S 1019,7 -
23.04.2018 10:00:00 19,6 16,9 9 5 S 1019,9 -
23.04.2018 09:00:00 19,1 17,5 5 3 S 1019,6 -
23.04.2018 08:00:00 17,8 17,3 0 0 N 1019,1 0,0
23.04.2018 07:00:00 15,8 15,1 2 1 S 1018,8 -
23.04.2018 06:00:00 16,7 16,3 9 5 S 1018,5 -
23.04.2018 05:00:00 15,8 14,4 0 0 N 1018,8 -
23.04.2018 04:00:00 16,4 15,4 5 3 S 1018,9 -
23.04.2018 03:00:00 16,3 14,9 4 2 S 1018,8 -
23.04.2018 02:00:00 16,9 15,5 4 2 S 1018,9 0,0
23.04.2018 01:00:00 17,1 15,7 13 7 S 1019,0 -
23.04.2018 00:00:00 17,2 15,8 15 8 S 1019,2 -
22.04.2018 23:00:00 16,5 15,3 11 6 S 1019,4 -
22.04.2018 22:00:00 16,3 14,9 2 1 S 1019,3 -
22.04.2018 21:00:00 16,3 14,6 0 0 N 1018,7 -
22.04.2018 20:00:00 17,8 15,9 0 0 N 1018,2 0,0
22.04.2018 19:00:00 18,1 15,8 0 0 N 1018,1 -
22.04.2018 18:00:00 18,4 16,3 0 0 N 1018,1 -
22.04.2018 17:00:00 19,1 17,0 9 5 S 1018,1 -
22.04.2018 16:00:00 19,6 16,8 8 4 S 1018,1 -
22.04.2018 15:00:00 20,5 17,1 8 4 S 1018,2 -
22.04.2018 14:00:00 20,4 17,7 8 4 S 1018,7 0,0
22.04.2018 13:00:00 19,9 17,2 13 7 S 1018,9 -
22.04.2018 12:00:00 19,4 16,9 8 4 S 1019,4 -
22.04.2018 11:00:00 19,5 17,4 8 4 S 1019,4 -
22.04.2018 10:00:00 18,9 16,8 5 3 S 1019,2 -
22.04.2018 09:00:00 18,9 17,2 4 2 S 1018,9 -
22.04.2018 08:00:00 17,4 15,5 0 0 N 1018,7 0,0
22.04.2018 07:00:00 15,7 12,0 0 0 N 1018,5 -
22.04.2018 06:00:00 15,5 12,8 8 4 S 1018,2 -
22.04.2018 05:00:00 15,5 12,2 8 4 S 1018,2 -
22.04.2018 04:00:00 15,5 13,1 0 0 N 1018,6 -
22.04.2018 03:00:00 15,8 13,4 0 0 N 1018,7 -
22.04.2018 02:00:00 15,9 14,5 0 0 N 1019,1 0,0
22.04.2018 01:00:00 15,6 13,9 2 1 S 1019,6 -
22.04.2018 00:00:00 15,9 14,2 0 0 N 1019,6 -
21.04.2018 23:00:00 15,7 13,1 0 0 N 1019,5 -
21.04.2018 22:00:00 16,0 12,5 0 0 N 1019,4 -
21.04.2018 21:00:00 16,1 13,1 4 2 S 1019,0 -
21.04.2018 20:00:00 16,7 12,8 0 0 N 1018,8 0,0
21.04.2018 19:00:00 18,6 14,8 0 0 N 1018,5 -
21.04.2018 18:00:00 19,3 15,9 2 1 S 1018,4 -
21.04.2018 17:00:00 19,4 16,4 4 2 S 1018,6 -
21.04.2018 16:00:00 19,5 16,7 8 4 S 1018,9 -
21.04.2018 15:00:00 20,4 17,3 8 4 S 1019,1 -
21.04.2018 14:00:00 19,8 17,5 5 3 S 1019,4 0,0
21.04.2018 13:00:00 19,5 17,0 8 4 S 1019,6 -
21.04.2018 12:00:00 19,9 17,6 9 5 S 1019,7 -
21.04.2018 11:00:00 18,9 17,0 11 6 S 1019,5 -
21.04.2018 10:00:00 18,8 17,4 9 5 S 1019,0 -
21.04.2018 09:00:00 17,5 16,6 5 3 S 1019,1 -
21.04.2018 08:00:00 17,1 16,7 2 1 S 1018,7 0,0
21.04.2018 07:00:00 15,2 14,5 2 1 S 1018,6 -
21.04.2018 06:00:00 15,2 14,3 0 0 N 1018,4 -
21.04.2018 05:00:00 15,6 14,6 9 5 S 1018,2 -
21.04.2018 04:00:00 15,2 13,2 0 0 N 1018,5 -
21.04.2018 03:00:00 15,0 12,8 2 1 S 1018,7 -
21.04.2018 02:00:00 15,2 12,7 0 0 N 1019,1 0,0
21.04.2018 01:00:00 15,9 13,5 2 1 S 1019,4 -
21.04.2018 00:00:00 15,5 13,8 0 0 N 1019,5 -
20.04.2018 23:00:00 15,3 14,1 0 0 N 1019,7 -
20.04.2018 22:00:00 16,0 15,0 5 3 S 1019,5 -
20.04.2018 21:00:00 15,5 13,8 0 0 N 1019,2 -
20.04.2018 20:00:00 16,3 13,9 0 0 N 1018,8 0,0
20.04.2018 19:00:00 17,9 15,5 0 0 N 1018,5 -
20.04.2018 18:00:00 18,3 15,1 4 2 S 1018,6 -
20.04.2018 17:00:00 19,9 15,5 4 2 S 1018,6 -
20.04.2018 16:00:00 19,8 15,8 5 3 S 1018,9 -
20.04.2018 15:00:00 19,9 15,9 8 4 S 1019,5 -
20.04.2018 14:00:00 19,7 16,3 9 5 S 1020,1 0,0
20.04.2018 13:00:00 19,5 15,9 8 4 S 1020,5 -
20.04.2018 12:00:00 18,8 15,4 9 5 S 1020,6 -
20.04.2018 11:00:00 18,7 16,1 9 5 S 1020,4 -
20.04.2018 10:00:00 17,9 16,5 8 4 S 1020,6 -
20.04.2018 09:00:00 17,2 17,0 2 1 S 1020,5 -
20.04.2018 08:00:00 16,2 16,0 0 0 N 1020,6 0,0
20.04.2018 07:00:00 14,5 14,0 2 1 S 1020,6 -
20.04.2018 06:00:00 14,8 14,3 2 1 S 1020,5 -
20.04.2018 05:00:00 14,8 13,8 0 0 N 1020,6 -
20.04.2018 04:00:00 15,4 14,0 0 0 N 1020,9 -
20.04.2018 03:00:00 15,8 14,3 0 0 N 1021,1 -
20.04.2018 02:00:00 15,3 13,9 0 0 N 1021,3 0,0
20.04.2018 01:00:00 15,6 14,6 2 1 S 1021,6 -
20.04.2018 00:00:00 15,0 13,6 0 0 N 1021,7 -
19.04.2018 23:00:00 15,7 14,8 0 0 N 1022,0 -
19.04.2018 22:00:00 15,9 15,2 5 3 S 1022,6 -
19.04.2018 21:00:00 15,8 14,8 2 1 S 1022,3 -
19.04.2018 20:00:00 16,4 15,2 5 3 S 1022,2 0,0
19.04.2018 19:00:00 17,4 15,7 4 2 S 1021,7 -
19.04.2018 18:00:00 18,1 16,2 5 3 S 1021,7 -
19.04.2018 17:00:00 18,7 15,9 11 6 S 1021,5 -
19.04.2018 16:00:00 19,2 16,2 5 3 S 1021,8 -
19.04.2018 15:00:00 19,0 16,4 11 6 S 1022,5 -
19.04.2018 14:00:00 19,5 17,4 8 4 S 1022,8 0,0
19.04.2018 13:00:00 18,2 16,1 11 6 S 1023,0 -
19.04.2018 12:00:00 17,6 15,9 4 2 S 1023,9 -
19.04.2018 11:00:00 18,1 16,5 5 3 S 1023,5 -
19.04.2018 10:00:00 17,4 16,4 8 4 S 1023,2 -
19.04.2018 09:00:00 17,3 16,8 0 0 N 1023,3 -
19.04.2018 08:00:00 15,5 15,0 0 0 N 1023,1 0,0
19.04.2018 07:00:00 14,2 13,4 0 0 N 1022,9 -
19.04.2018 06:00:00 14,1 13,1 0 0 N 1022,6 -
19.04.2018 05:00:00 14,3 13,5 0 0 N 1022,8 -
19.04.2018 04:00:00 14,5 13,5 0 0 N 1023,0 -
19.04.2018 03:00:00 14,3 13,0 0 0 N 1023,1 -
19.04.2018 02:00:00 14,7 13,7 0 0 N 1023,5 0,0

tt = Température de l'air
td = dewpoint
ff = Vitesse du vent
dd = Direction du vent
ppp = reduced air pressure
rr = Quantités de précipitations

stations d'obs. à proximité